Time;durP1;ratioP1;P1;durP2;ratioP2;P2;SDS_P1;SDS_P2;PMS_P1;PMS_P2;Temp;Humidity;BMP_temperature;BMP_pressure;BME280_temperature;BME280_humidity;BME280_pressure;Samples;Min_cycle;Max_cycle;Signal;HPM_P1;HPM_P2
2023/08/31 00:01:03;;;;;;;0.70;0.70;;;;;;;22.98;nan;62140.34;5034794;28;20241;-66
2023/08/31 00:03:29;;;;;;;1.17;1.10;;;;;;;22.95;nan;61968.06;5035134;28;20202;-65
2023/08/31 00:05:55;;;;;;;0.70;0.70;;;;;;;22.89;nan;62005.53;5035289;28;20180;-64
2023/08/31 00:08:22;;;;;;;0.85;0.85;;;;;;;22.61;nan;61952.84;5034526;28;20219;-66
2023/08/31 00:10:55;;;;;;;0.50;0.50;;;;;;;22.66;nan;62042.44;5035023;28;20175;-66
2023/08/31 00:13:20;;;;;;;0.75;0.75;;;;;;;22.70;nan;62216.38;5034931;28;20538;-63
2023/08/31 00:15:46;;;;;;;0.82;0.82;;;;;;;22.71;nan;61969.44;5034765;28;20234;-67
2023/08/31 00:18:12;;;;;;;0.93;0.93;;;;;;;22.46;nan;62032.72;5034680;28;20167;-63
2023/08/31 00:20:38;;;;;;;0.70;0.70;;;;;;;22.43;nan;61860.03;5034163;28;20175;-64
2023/08/31 00:23:03;;;;;;;0.63;0.63;;;;;;;22.56;nan;61924.31;5033055;28;20201;-64
2023/08/31 00:25:29;;;;;;;0.88;0.88;;;;;;;22.39;nan;61897.72;5034639;28;20171;-64
2023/08/31 00:27:57;;;;;;;1.02;1.02;;;;;;;22.51;nan;61907.63;5034378;28;20175;-63
2023/08/31 00:30:25;;;;;;;1.00;1.00;;;;;;;22.41;nan;61912.47;5034422;28;20179;-66
2023/08/31 00:32:53;;;;;;;0.70;0.70;;;;;;;22.46;nan;62002.03;5050157;28;20614;-63
2023/08/31 00:35:18;;;;;;;0.60;0.60;;;;;;;22.39;nan;61925.78;5034404;28;20171;-65
2023/08/31 00:37:45;;;;;;;0.60;0.60;;;;;;;22.27;nan;61966.84;5034891;28;20167;-65
2023/08/31 00:40:13;;;;;;;0.73;0.73;;;;;;;22.22;nan;61880.44;5033896;28;20604;-65
2023/08/31 00:42:39;;;;;;;0.95;0.95;;;;;;;22.16;nan;62025.16;5034272;28;20199;-63
2023/08/31 00:45:05;;;;;;;0.52;0.52;;;;;;;21.95;nan;61965.41;5032957;28;20236;-67
2023/08/31 00:47:31;;;;;;;0.93;0.85;;;;;;;22.27;nan;61964.22;5033694;28;20666;-62
2023/08/31 00:49:56;;;;;;;0.88;0.88;;;;;;;22.14;nan;61947.41;5033762;28;20191;-65
2023/08/31 00:52:22;;;;;;;0.75;0.75;;;;;;;22.06;nan;61864.88;5033456;28;20178;-66
2023/08/31 00:54:52;;;;;;;0.70;0.70;;;;;;;22.01;nan;61956.59;5033276;28;20199;-65
2023/08/31 00:57:18;;;;;;;1.13;1.08;;;;;;;21.99;nan;61805.44;5033759;28;20164;-63
2023/08/31 00:59:43;;;;;;;1.38;0.85;;;;;;;22.25;nan;62118.13;5033573;28;20186;-65
2023/08/31 01:02:44;;;;;;;0.70;0.70;;;;;;;22.23;nan;61988.31;5033172;28;20185;-64
2023/08/31 01:05:33;;;;;;;0.90;0.90;;;;;;;21.97;nan;61876.03;5033132;28;20178;-63
2023/08/31 01:08:18;;;;;;;0.32;0.32;;;;;;;22.13;nan;61969.13;5033140;28;20254;-63
2023/08/31 01:11:03;;;;;;;0.52;0.52;;;;;;;22.07;nan;61873.81;5033642;28;20239;-65
2023/08/31 01:13:31;;;;;;;0.63;0.60;;;;;;;22.09;nan;61991.19;5032940;28;20209;-65
2023/08/31 01:16:03;;;;;;;0.73;0.73;;;;;;;21.97;nan;61977.50;5033605;28;20175;-63
2023/08/31 01:18:29;;;;;;;0.50;0.50;;;;;;;22.17;nan;61901.38;5031504;28;20627;-63
2023/08/31 01:21:24;;;;;;;0.70;0.70;;;;;;;22.37;nan;61970.41;5037826;28;20187;-62
2023/08/31 01:23:56;;;;;;;0.65;0.65;;;;;;;22.38;nan;61969.50;5029077;28;20276;-64
2023/08/31 01:26:22;;;;;;;0.70;0.70;;;;;;;22.43;nan;61917.31;5037161;28;20336;-62
2023/08/31 01:28:49;;;;;;;1.02;0.80;;;;;;;22.45;nan;61948.25;5035751;28;20240;-62
2023/08/31 01:31:15;;;;;;;0.50;0.50;;;;;;;22.45;nan;61935.22;5033708;28;20179;-61
2023/08/31 01:33:41;;;;;;;0.50;0.50;;;;;;;22.28;nan;61858.63;5036659;28;20555;-66
2023/08/31 01:36:24;;;;;;;0.77;0.77;;;;;;;22.50;nan;62174.72;5042298;28;20175;-65
2023/08/31 01:39:06;;;;;;;0.60;0.60;;;;;;;22.52;nan;61951.00;5036363;28;20646;-62
2023/08/31 01:41:35;;;;;;;0.95;0.90;;;;;;;22.28;nan;61955.53;5035572;28;20191;-63
2023/08/31 01:44:02;;;;;;;0.70;0.70;;;;;;;22.24;nan;61900.94;5037792;28;20563;-63
2023/08/31 01:46:28;;;;;;;0.70;0.68;;;;;;;22.23;nan;61915.44;5039714;28;20664;-63
2023/08/31 01:48:53;;;;;;;1.25;1.17;;;;;;;22.27;nan;61912.16;5039014;28;20246;-62
2023/08/31 01:51:18;;;;;;;0.90;0.90;;;;;;;22.25;nan;61878.66;5035499;28;20667;-65
2023/08/31 01:53:44;;;;;;;0.45;0.45;;;;;;;22.11;nan;61860.72;5033508;28;20229;-64
2023/08/31 01:56:10;;;;;;;0.60;0.60;;;;;;;22.29;nan;61945.66;5032536;28;20176;-66
2023/08/31 01:58:35;;;;;;;1.95;1.10;;;;;;;22.02;nan;61913.50;5036125;28;20193;-65
2023/08/31 02:01:01;;;;;;;0.50;0.50;;;;;;;21.99;nan;61899.69;5040994;28;20187;-62
2023/08/31 02:03:26;;;;;;;0.68;0.68;;;;;;;22.20;nan;61881.34;5039041;28;20264;-66
2023/08/31 02:05:52;;;;;;;0.85;0.85;;;;;;;22.01;nan;61821.28;5038179;28;20175;-66
2023/08/31 02:08:18;;;;;;;0.75;0.75;;;;;;;22.15;nan;62124.97;5040278;28;20226;-67
2023/08/31 02:10:46;;;;;;;0.75;0.75;;;;;;;22.28;nan;61893.06;5036927;28;20186;-66
2023/08/31 02:13:11;;;;;;;0.90;0.90;;;;;;;22.14;nan;61886.97;5040108;28;20337;-64
2023/08/31 02:15:40;;;;;;;1.27;1.17;;;;;;;22.10;nan;61947.50;5039227;28;20269;-65
2023/08/31 02:18:07;;;;;;;0.88;0.85;;;;;;;22.23;nan;61988.31;5033783;28;20179;-67
2023/08/31 02:20:34;;;;;;;0.65;0.65;;;;;;;22.38;nan;61994.97;5038771;28;20209;-66
2023/08/31 02:23:00;;;;;;;0.73;0.70;;;;;;;22.68;nan;61932.72;5037668;28;20298;-64
2023/08/31 02:25:27;;;;;;;2.60;0.93;;;;;;;22.76;nan;61993.38;5037417;28;20278;-65
2023/08/31 02:27:53;;;;;;;0.77;0.77;;;;;;;22.64;nan;62079.25;5039222;28;20270;-63
2023/08/31 02:30:19;;;;;;;0.45;0.45;;;;;;;22.83;nan;61913.31;5038246;28;20669;-65
2023/08/31 02:32:44;;;;;;;0.60;0.60;;;;;;;22.59;nan;61935.50;5032141;28;20256;-64
2023/08/31 02:35:10;;;;;;;0.93;0.93;;;;;;;22.68;nan;61956.16;5032102;28;20646;-66
2023/08/31 02:37:35;;;;;;;0.30;0.30;;;;;;;22.33;nan;61854.47;5032258;28;20211;-64
2023/08/31 02:40:00;;;;;;;0.40;0.40;;;;;;;22.40;nan;61898.88;5032159;28;20661;-67
2023/08/31 02:42:26;;;;;;;3.00;1.52;;;;;;;22.33;nan;62023.13;5032003;28;20188;-64
2023/08/31 02:44:54;;;;;;;0.80;0.80;;;;;;;22.44;nan;61911.22;5032041;28;20258;-62
2023/08/31 02:47:19;;;;;;;0.50;0.50;;;;;;;22.31;nan;61890.69;5031641;28;20174;-64
2023/08/31 02:49:45;;;;;;;0.57;0.57;;;;;;;22.33;nan;61916.38;5031637;28;20171;-62
2023/08/31 02:52:10;;;;;;;2.15;1.17;;;;;;;22.18;nan;61814.00;5032070;28;20174;-65
2023/08/31 02:54:36;;;;;;;0.73;0.73;;;;;;;22.40;nan;61937.34;5032009;28;20176;-65
2023/08/31 02:57:02;;;;;;;0.60;0.60;;;;;;;22.33;nan;61879.94;5032005;28;20175;-65
2023/08/31 02:59:27;;;;;;;0.50;0.50;;;;;;;22.46;nan;61912.94;5031875;28;20664;-65
2023/08/31 03:01:53;;;;;;;0.50;0.50;;;;;;;22.37;nan;61931.91;5032480;28;20676;-67
2023/08/31 03:04:18;;;;;;;0.70;0.70;;;;;;;22.34;nan;61896.69;5033315;28;20301;-65
2023/08/31 03:06:45;;;;;;;0.70;0.70;;;;;;;22.26;nan;61913.63;5032022;28;20175;-65
2023/08/31 03:09:10;;;;;;;0.70;0.70;;;;;;;22.06;nan;61894.06;5031424;28;20288;-63
2023/08/31 03:11:35;;;;;;;0.80;0.80;;;;;;;22.23;nan;61923.25;5030395;28;20582;-62
2023/08/31 03:14:01;;;;;;;0.60;0.60;;;;;;;22.34;nan;61925.31;5031804;28;20171;-63
2023/08/31 03:16:26;;;;;;;0.85;0.85;;;;;;;22.00;nan;61846.19;5031493;28;20178;-66
2023/08/31 03:18:52;;;;;;;0.63;0.63;;;;;;;22.07;nan;61850.38;5031716;28;20175;-66
2023/08/31 03:21:18;;;;;;;0.43;0.43;;;;;;;22.03;nan;62114.47;5031652;28;20256;-63
2023/08/31 03:23:43;;;;;;;0.70;0.70;;;;;;;21.84;nan;61773.38;5031592;28;20620;-67
2023/08/31 03:26:09;;;;;;;0.60;0.60;;;;;;;21.93;nan;61887.66;5031966;28;20175;-63
2023/08/31 03:28:35;;;;;;;0.50;0.50;;;;;;;21.67;nan;61793.09;5031065;28;20232;-66
2023/08/31 03:31:01;;;;;;;0.60;0.60;;;;;;;21.71;nan;61791.84;5031364;28;20178;-66
2023/08/31 03:33:28;;;;;;;0.40;0.40;;;;;;;21.72;nan;61865.81;5032027;28;20259;-65
2023/08/31 03:35:54;;;;;;;0.80;0.80;;;;;;;21.77;nan;61874.09;5033131;28;20234;-66
2023/08/31 03:38:19;;;;;;;0.80;0.80;;;;;;;21.61;nan;61864.28;5031561;28;20171;-66
2023/08/31 03:40:55;;;;;;;0.52;0.52;;;;;;;21.36;nan;61830.72;5030428;28;20175;-65
2023/08/31 03:43:20;;;;;;;0.60;0.60;;;;;;;21.45;nan;61768.13;5031199;28;20206;-63
2023/08/31 03:45:46;;;;;;;0.80;0.80;;;;;;;21.60;nan;61935.97;5036207;28;20193;-64
2023/08/31 03:48:11;;;;;;;0.82;0.82;;;;;;;21.85;nan;61870.19;5031423;28;20641;-69
2023/08/31 03:50:37;;;;;;;0.50;0.50;;;;;;;21.99;nan;61834.66;5031274;28;20183;-68
2023/08/31 03:53:03;;;;;;;0.80;0.80;;;;;;;22.13;nan;61906.66;5031635;28;20171;-67
2023/08/31 03:55:28;;;;;;;0.60;0.60;;;;;;;22.03;nan;61973.94;5031873;28;20179;-68
2023/08/31 03:57:54;;;;;;;0.85;0.85;;;;;;;22.02;nan;61871.31;5034270;28;20210;-68
2023/08/31 04:00:20;;;;;;;0.60;0.60;;;;;;;22.00;nan;61850.84;5034711;28;20282;-71
2023/08/31 04:02:45;;;;;;;0.70;0.70;;;;;;;22.12;nan;61843.63;5035455;28;20280;-70
2023/08/31 04:05:11;;;;;;;1.17;1.00;;;;;;;22.36;nan;61928.16;5035247;28;20182;-63
2023/08/31 04:07:37;;;;;;;1.00;0.90;;;;;;;22.23;nan;62014.34;5032885;28;20227;-64
2023/08/31 04:10:03;;;;;;;0.40;0.40;;;;;;;22.41;nan;61926.03;5034307;28;20190;-64
2023/08/31 04:12:30;;;;;;;0.60;0.60;;;;;;;22.58;nan;61942.19;5034285;28;20542;-68
2023/08/31 04:14:56;;;;;;;0.90;0.88;;;;;;;22.66;nan;61964.31;5034018;28;20609;-66
2023/08/31 04:17:22;;;;;;;0.55;0.55;;;;;;;23.23;nan;62161.59;5034575;28;20669;-66
2023/08/31 04:19:47;;;;;;;0.60;0.60;;;;;;;23.77;nan;62034.72;5034172;28;20297;-66
2023/08/31 04:22:12;;;;;;;1.02;0.95;;;;;;;23.95;nan;62155.88;5034379;28;20267;-68
2023/08/31 04:24:38;;;;;;;1.00;1.00;;;;;;;24.16;nan;62213.75;5033950;28;20291;-68
2023/08/31 04:27:03;;;;;;;0.73;0.73;;;;;;;24.18;nan;62153.38;5034133;28;20167;-65
2023/08/31 04:29:29;;;;;;;0.60;0.60;;;;;;;24.12;nan;62154.91;5033772;28;20178;-66
2023/08/31 04:31:55;;;;;;;0.70;0.70;;;;;;;24.20;nan;62249.66;5032265;28;20175;-63
2023/08/31 04:34:20;;;;;;;0.65;0.65;;;;;;;24.32;nan;62192.84;5032303;28;20184;-65
2023/08/31 04:36:45;;;;;;;0.80;0.80;;;;;;;24.34;nan;62171.59;5032644;28;20175;-66
2023/08/31 04:39:11;;;;;;;0.65;0.65;;;;;;;24.12;nan;62089.06;5032294;28;20171;-64
2023/08/31 04:41:36;;;;;;;1.67;1.58;;;;;;;24.26;nan;62193.25;5032703;28;20697;-65
2023/08/31 04:44:01;;;;;;;0.70;0.70;;;;;;;24.19;nan;62308.59;5031569;28;20271;-64
2023/08/31 04:46:27;;;;;;;0.80;0.80;;;;;;;24.12;nan;62256.19;5032389;28;20190;-65
2023/08/31 04:48:52;;;;;;;0.65;0.65;;;;;;;24.09;nan;62226.66;5034090;28;20175;-66
2023/08/31 04:51:34;;;;;;;1.02;1.02;;;;;;;24.01;nan;62084.94;5033898;28;20168;-64
2023/08/31 04:54:00;;;;;;;0.70;0.70;;;;;;;24.17;nan;62128.75;5034085;28;20195;-67
2023/08/31 04:56:31;;;;;;;1.00;0.95;;;;;;;24.16;nan;62235.22;5035890;28;20205;-65
2023/08/31 04:58:57;;;;;;;1.02;1.02;;;;;;;24.33;nan;62154.22;5033909;28;20175;-68
2023/08/31 05:01:22;;;;;;;1.25;1.15;;;;;;;24.23;nan;62117.28;5034042;28;20185;-65
2023/08/31 05:03:48;;;;;;;1.00;1.00;;;;;;;24.43;nan;62165.59;5034505;28;20276;-63
2023/08/31 05:06:13;;;;;;;0.88;0.88;;;;;;;24.40;nan;62173.22;5042731;28;20175;-62
2023/08/31 05:08:39;;;;;;;1.10;1.05;;;;;;;24.52;nan;62179.06;5034913;28;20229;-66
2023/08/31 05:11:04;;;;;;;2.03;1.13;;;;;;;24.83;nan;62197.56;5035858;28;20191;-65
2023/08/31 05:13:30;;;;;;;0.63;0.63;;;;;;;24.75;nan;62232.88;5040985;28;20689;-62
2023/08/31 05:15:55;;;;;;;0.75;0.75;;;;;;;25.16;nan;62250.88;5035839;28;20190;-67
2023/08/31 05:18:20;;;;;;;0.70;0.70;;;;;;;25.06;nan;62349.88;5033058;28;20225;-65
2023/08/31 05:20:48;;;;;;;0.60;0.60;;;;;;;25.49;nan;62308.88;5039451;28;20638;-67
2023/08/31 05:23:14;;;;;;;0.73;0.73;;;;;;;25.67;nan;62352.44;5038892;28;20635;-67
2023/08/31 05:25:45;;;;;;;0.75;0.75;;;;;;;25.48;nan;62394.09;5033412;28;20187;-62
2023/08/31 05:28:11;;;;;;;0.75;0.75;;;;;;;25.66;nan;62314.66;5036121;28;20187;-62
2023/08/31 05:30:45;;;;;;;0.70;0.70;;;;;;;26.12;nan;62547.34;5040326;28;20245;-63
2023/08/31 05:33:11;;;;;;;0.43;0.43;;;;;;;26.05;nan;62482.28;5037046;28;20327;-64
2023/08/31 05:35:36;;;;;;;1.00;0.85;;;;;;;26.36;nan;62609.47;5035013;28;20602;-62
2023/08/31 05:38:03;;;;;;;0.65;0.65;;;;;;;26.30;nan;62460.53;5034145;28;20184;-64
2023/08/31 05:40:28;;;;;;;0.70;0.70;;;;;;;26.35;nan;62560.59;5032867;28;20184;-64
2023/08/31 05:42:54;;;;;;;0.40;0.40;;;;;;;26.19;nan;62396.09;5037122;28;20206;-63
2023/08/31 05:45:19;;;;;;;1.20;1.02;;;;;;;26.23;nan;62533.75;5043282;28;20261;-61
2023/08/31 05:47:44;;;;;;;0.60;0.60;;;;;;;26.20;nan;62417.63;5038472;28;20243;-63
2023/08/31 05:50:10;;;;;;;0.90;0.90;;;;;;;26.47;nan;62427.53;5041499;28;20171;-65
2023/08/31 05:52:35;;;;;;;0.52;0.52;;;;;;;26.48;nan;62567.03;5034604;28;20186;-65
2023/08/31 05:55:01;;;;;;;0.50;0.50;;;;;;;26.32;nan;62429.31;5034067;28;20191;-66
2023/08/31 05:57:30;;;;;;;0.32;0.32;;;;;;;26.40;nan;62418.97;5039974;28;20179;-64
2023/08/31 05:59:55;;;;;;;0.85;0.85;;;;;;;26.16;nan;62525.72;5039041;28;20187;-63
2023/08/31 06:02:20;;;;;;;0.50;0.50;;;;;;;26.18;nan;62536.44;5036094;28;20183;-68
2023/08/31 06:04:46;;;;;;;0.45;0.45;;;;;;;26.04;nan;62363.25;5039803;28;20225;-63
2023/08/31 06:07:11;;;;;;;0.75;0.75;;;;;;;25.92;nan;62438.59;5034901;28;20230;-66
2023/08/31 06:09:37;;;;;;;0.40;0.40;;;;;;;25.84;nan;62476.59;5037760;28;20186;-66
2023/08/31 06:12:04;;;;;;;0.40;0.40;;;;;;;25.65;nan;62324.56;5034318;28;20179;-64
2023/08/31 06:14:29;;;;;;;0.50;0.50;;;;;;;25.75;nan;62343.25;5032655;28;20258;-65
2023/08/31 06:16:55;;;;;;;0.40;0.40;;;;;;;25.75;nan;62453.22;5032573;28;20321;-67
2023/08/31 06:19:20;;;;;;;0.77;0.77;;;;;;;26.11;nan;62430.94;5039656;28;20187;-62
2023/08/31 06:21:46;;;;;;;0.50;0.50;;;;;;;26.17;nan;62642.72;5034261;28;20721;-65
2023/08/31 06:24:12;;;;;;;0.90;0.88;;;;;;;26.36;nan;62417.59;5034671;28;20209;-65
2023/08/31 06:26:38;;;;;;;0.57;0.57;;;;;;;26.32;nan;62479.09;5031996;28;20189;-63
2023/08/31 06:29:04;;;;;;;0.77;0.77;;;;;;;26.51;nan;62436.78;5034645;28;20236;-63
2023/08/31 06:31:29;;;;;;;0.50;0.50;;;;;;;26.70;nan;62474.78;5034377;28;20187;-64
2023/08/31 06:33:55;;;;;;;0.43;0.43;;;;;;;26.56;nan;62437.25;5032142;28;20183;-66
2023/08/31 06:36:20;;;;;;;0.52;0.52;;;;;;;26.86;nan;62578.53;5031974;28;20189;-66
2023/08/31 06:38:46;;;;;;;0.57;0.57;;;;;;;26.74;nan;62596.81;5032524;28;20175;-64
2023/08/31 06:41:12;;;;;;;0.60;0.60;;;;;;;26.82;nan;62511.53;5031129;28;20188;-65
2023/08/31 06:43:37;;;;;;;0.45;0.45;;;;;;;26.79;nan;62550.06;5032439;28;20207;-63
2023/08/31 06:46:03;;;;;;;0.45;0.45;;;;;;;26.75;nan;62511.97;5038715;28;20186;-63
2023/08/31 06:48:28;;;;;;;0.40;0.40;;;;;;;26.66;nan;62596.09;5032884;28;20189;-66
2023/08/31 06:50:54;;;;;;;0.40;0.40;;;;;;;26.61;nan;62577.25;5047531;28;20338;-63
2023/08/31 06:53:19;;;;;;;0.50;0.50;;;;;;;26.73;nan;62488.13;5036214;28;20221;-66
2023/08/31 06:55:45;;;;;;;0.60;0.60;;;;;;;26.98;nan;62716.13;5033940;28;20631;-65
2023/08/31 06:58:10;;;;;;;0.93;0.88;;;;;;;27.07;nan;62542.78;5031847;28;20261;-66
2023/08/31 07:00:36;;;;;;;0.50;0.50;;;;;;;27.02;nan;62523.94;5034021;28;20187;-66
2023/08/31 07:03:01;;;;;;;0.60;0.60;;;;;;;27.25;nan;62531.88;5038805;28;20591;-64
2023/08/31 07:05:27;;;;;;;0.60;0.60;;;;;;;25.33;nan;62390.63;5030707;28;20629;-65
2023/08/31 07:07:54;;;;;;;1.33;1.25;;;;;;;27.22;nan;62656.47;5038611;28;20219;-64
2023/08/31 07:10:20;;;;;;;0.50;0.50;;;;;;;27.28;nan;62642.38;5032690;28;20171;-67
2023/08/31 07:12:45;;;;;;;0.95;0.95;;;;;;;27.34;nan;62535.75;5033760;28;20276;-67
2023/08/31 07:15:11;;;;;;;0.30;0.30;;;;;;;27.19;nan;62603.75;5037599;28;20284;-65
2023/08/31 07:17:36;;;;;;;0.50;0.50;;;;;;;27.57;nan;62685.53;5039969;28;20178;-63
2023/08/31 07:20:05;;;;;;;0.40;0.40;;;;;;;27.57;nan;62590.97;5040471;28;20173;-66
2023/08/31 07:22:32;;;;;;;0.40;0.40;;;;;;;27.66;nan;62606.53;5038391;28;20216;-66
2023/08/31 07:24:57;;;;;;;0.40;0.40;;;;;;;27.52;nan;62719.19;5041608;28;20182;-67
2023/08/31 07:27:23;;;;;;;0.35;0.35;;;;;;;27.78;nan;62643.94;5038577;28;20179;-65
2023/08/31 07:29:48;;;;;;;0.40;0.40;;;;;;;27.92;nan;62641.56;5039289;28;20574;-66
2023/08/31 07:32:14;;;;;;;0.93;0.93;;;;;;;28.16;nan;62684.28;5040215;28;20184;-65
2023/08/31 07:34:39;;;;;;;0.30;0.30;;;;;;;28.20;nan;62870.22;5042770;28;21222;-64
2023/08/31 07:37:06;;;;;;;0.50;0.50;;;;;;;28.36;nan;62699.28;5043469;28;20186;-67
2023/08/31 07:39:32;;;;;;;0.32;0.32;;;;;;;25.79;nan;62445.28;5041183;28;20186;-67
2023/08/31 07:41:59;;;;;;;0.40;0.40;;;;;;;28.72;nan;62950.44;5043145;28;20182;-68
2023/08/31 07:44:24;;;;;;;0.45;0.45;;;;;;;28.88;nan;62732.00;5042366;28;20293;-65
2023/08/31 07:46:50;;;;;;;0.45;0.45;;;;;;;29.05;nan;62827.25;5042462;28;20744;-65
2023/08/31 07:49:15;;;;;;;0.40;0.40;;;;;;;24.73;nan;62354.03;5044949;28;20629;-64
2023/08/31 07:51:41;;;;;;;0.30;0.30;;;;;;;28.75;nan;62787.56;5040670;28;20300;-62
2023/08/31 07:54:06;;;;;;;0.52;0.52;;;;;;;29.00;nan;62776.75;5043533;28;20566;-66
2023/08/31 07:56:32;;;;;;;0.50;0.50;;;;;;;28.96;nan;62778.00;5044040;28;20253;-65
2023/08/31 07:58:58;;;;;;;0.60;0.47;;;;;;;28.81;nan;62713.44;5044181;28;20178;-62
2023/08/31 08:01:23;;;;;;;0.43;0.43;;;;;;;28.85;nan;62781.19;5041613;28;20593;-65
2023/08/31 08:03:49;;;;;;;0.40;0.40;;;;;;;29.09;nan;62844.97;5041319;28;20194;-65
2023/08/31 08:06:14;;;;;;;0.40;0.40;;;;;;;29.29;nan;62867.94;5044311;28;20182;-64
2023/08/31 08:08:40;;;;;;;0.68;0.68;;;;;;;29.28;nan;62879.38;5042759;28;20712;-62
2023/08/31 08:11:05;;;;;;;0.57;0.57;;;;;;;29.52;nan;62964.91;5036691;28;20175;-66
2023/08/31 08:13:30;;;;;;;1.88;1.40;;;;;;;29.50;nan;62946.81;5039792;28;20190;-66
2023/08/31 08:15:56;;;;;;;0.50;0.50;;;;;;;29.57;nan;62928.50;5041590;28;20652;-64
2023/08/31 08:18:21;;;;;;;0.40;0.40;;;;;;;29.87;nan;62964.47;5041906;28;20186;-63
2023/08/31 08:20:49;;;;;;;0.30;0.30;;;;;;;30.10;nan;63007.31;5042133;28;20669;-63
2023/08/31 08:23:14;;;;;;;0.88;0.88;;;;;;;30.16;nan;63077.50;5043240;28;20329;-66
2023/08/31 08:25:40;;;;;;;0.30;0.30;;;;;;;30.10;nan;63080.56;5039445;28;20269;-64
2023/08/31 08:28:05;;;;;;;0.45;0.45;;;;;;;30.13;nan;63028.63;5034783;28;20178;-66
2023/08/31 08:30:31;;;;;;;9.85;1.13;;;;;;;30.01;nan;62938.41;5036574;28;20186;-66
2023/08/31 08:32:57;;;;;;;0.40;0.40;;;;;;;30.36;nan;63088.81;5042689;28;20575;-65
2023/08/31 08:35:22;;;;;;;0.20;0.20;;;;;;;30.39;nan;63007.81;5041500;28;20321;-65
2023/08/31 08:37:48;;;;;;;0.28;0.28;;;;;;;30.73;nan;63078.03;5040157;28;20689;-64
2023/08/31 08:40:13;;;;;;;0.43;0.43;;;;;;;30.53;nan;63056.19;5043800;28;20184;-65
2023/08/31 08:42:41;;;;;;;0.50;0.50;;;;;;;30.41;nan;62950.03;5042657;28;20641;-65
2023/08/31 08:45:17;;;;;;;0.30;0.30;;;;;;;30.48;nan;63074.19;5038901;28;20206;-66
2023/08/31 08:47:44;;;;;;;0.50;0.50;;;;;;;30.38;nan;63149.72;5037325;28;20281;-63
2023/08/31 08:50:13;;;;;;;0.45;0.45;;;;;;;30.94;nan;63150.28;5042630;28;20177;-64
2023/08/31 08:52:42;;;;;;;0.40;0.40;;;;;;;30.66;nan;63060.56;5040746;28;20641;-68
2023/08/31 08:55:09;;;;;;;0.43;0.40;;;;;;;30.80;nan;63292.03;5040355;28;20178;-64
2023/08/31 08:57:35;;;;;;;0.32;0.32;;;;;;;30.91;nan;63115.16;5038301;28;20232;-66
2023/08/31 09:00:00;;;;;;;0.40;0.40;;;;;;;31.00;nan;63125.50;5042657;28;20194;-69
2023/08/31 09:02:25;;;;;;;0.35;0.30;;;;;;;31.17;nan;63287.16;5037449;28;20185;-68
2023/08/31 09:04:54;;;;;;;0.50;0.50;;;;;;;31.49;nan;63218.34;5036784;28;20692;-69
2023/08/31 09:07:21;;;;;;;0.50;0.50;;;;;;;30.98;nan;63130.56;5035923;28;20226;-69
2023/08/31 09:09:53;;;;;;;0.85;0.82;;;;;;;31.56;nan;63213.22;5033307;28;20186;-64
2023/08/31 09:12:23;;;;;;;0.55;0.55;;;;;;;31.70;nan;63117.75;5033129;28;20178;-69
2023/08/31 09:15:02;;;;;;;0.30;0.30;;;;;;;31.74;nan;63230.75;5032981;28;20265;-67
2023/08/31 09:17:39;;;;;;;0.50;0.50;;;;;;;31.30;nan;63196.50;5032841;28;20181;-64
2023/08/31 09:20:05;;;;;;;0.28;0.28;;;;;;;31.71;nan;63317.19;5033137;28;20236;-70
2023/08/31 09:22:33;;;;;;;0.60;0.60;;;;;;;31.86;nan;63265.16;5033140;28;20625;-66
2023/08/31 09:24:58;;;;;;;0.30;0.30;;;;;;;32.01;nan;63293.59;5032914;28;20212;-69
2023/08/31 09:27:24;;;;;;;0.35;0.35;;;;;;;32.16;nan;63320.34;5032821;28;20178;-73
2023/08/31 09:29:50;;;;;;;0.30;0.30;;;;;;;32.12;nan;63241.66;5032915;28;20171;-67
2023/08/31 09:32:19;;;;;;;0.40;0.40;;;;;;;31.84;nan;63384.50;5033006;28;20182;-69
2023/08/31 09:34:45;;;;;;;0.30;0.30;;;;;;;31.86;nan;63265.16;5032974;28;20175;-68
2023/08/31 09:37:10;;;;;;;0.47;0.47;;;;;;;32.08;nan;63311.09;5032942;28;20174;-69
2023/08/31 09:39:37;;;;;;;0.28;0.28;;;;;;;32.01;nan;63245.41;5032695;28;20174;-71
2023/08/31 09:42:03;;;;;;;0.50;0.50;;;;;;;31.92;nan;63346.13;5032859;28;20171;-66
2023/08/31 09:44:29;;;;;;;0.43;0.43;;;;;;;32.17;nan;63451.72;5032465;28;20295;-69
2023/08/31 09:46:54;;;;;;;4.07;1.38;;;;;;;31.95;nan;63378.69;5032729;28;20179;-70
2023/08/31 09:49:21;;;;;;;0.57;0.57;;;;;;;32.07;nan;63354.91;5032460;28;20171;-67
2023/08/31 09:51:49;;;;;;;0.85;0.50;;;;;;;32.53;nan;63490.09;5032657;28;20246;-67
2023/08/31 09:54:17;;;;;;;1.60;1.05;;;;;;;32.79;nan;63469.25;5031927;28;20557;-71
2023/08/31 09:56:43;;;;;;;0.40;0.40;;;;;;;33.21;nan;63437.72;5032346;28;20207;-69
2023/08/31 09:59:14;;;;;;;0.38;0.38;;;;;;;33.81;nan;63673.56;5032385;28;20245;-70
2023/08/31 10:01:45;;;;;;;0.20;0.20;;;;;;;33.84;nan;63623.41;5032512;28;20630;-72
2023/08/31 10:04:12;;;;;;;0.35;0.35;;;;;;;33.62;nan;63550.75;5032278;28;20229;-70
2023/08/31 10:06:41;;;;;;;0.40;0.40;;;;;;;33.43;nan;63524.09;5032516;28;20170;-71
2023/08/31 10:09:09;;;;;;;0.25;0.25;;;;;;;33.39;nan;63585.19;5031849;28;20229;-72
2023/08/31 10:11:36;;;;;;;0.30;0.30;;;;;;;33.22;nan;63524.25;5035627;28;20675;-66
2023/08/31 10:14:03;;;;;;;0.43;0.43;;;;;;;33.30;nan;63607.13;5032940;28;20567;-67
2023/08/31 10:16:30;;;;;;;0.40;0.40;;;;;;;33.46;nan;63558.78;5032130;28;20194;-69
2023/08/31 10:18:56;;;;;;;0.32;0.32;;;;;;;33.45;nan;63531.13;5032168;28;20173;-67
2023/08/31 10:21:23;;;;;;;0.30;0.30;;;;;;;33.32;nan;63550.56;5031789;28;20209;-74
2023/08/31 10:23:50;;;;;;;0.30;0.30;;;;;;;32.88;nan;63508.22;5030341;28;20651;-68
2023/08/31 10:26:29;;;;;;;0.30;0.30;;;;;;;33.03;nan;63496.41;5031445;28;20206;-67
2023/08/31 10:28:56;;;;;;;0.40;0.40;;;;;;;32.64;nan;63576.97;5031386;28;20193;-66
2023/08/31 10:31:22;;;;;;;0.57;0.57;;;;;;;33.10;nan;63428.22;5031644;28;20179;-68
2023/08/31 10:33:54;;;;;;;0.73;0.73;;;;;;;33.17;nan;63536.44;5032179;28;20185;-67
2023/08/31 10:36:20;;;;;;;0.20;0.20;;;;;;;33.03;nan;63536.16;5030435;28;20533;-66
2023/08/31 10:38:57;;;;;;;0.30;0.30;;;;;;;33.36;nan;63600.25;5031625;28;20266;-66
2023/08/31 10:41:24;;;;;;;0.20;0.20;;;;;;;33.51;nan;63687.13;5012019;28;20175;-67
2023/08/31 10:43:51;;;;;;;0.30;0.30;;;;;;;33.71;nan;63614.25;5012103;28;20210;-67
2023/08/31 10:46:28;;;;;;;0.30;0.30;;;;;;;33.85;nan;63601.25;5012053;28;20198;-65
2023/08/31 10:49:14;;;;;;;0.40;0.40;;;;;;;33.79;nan;63662.72;5011989;28;20163;-64
2023/08/31 10:51:45;;;;;;;0.40;0.40;;;;;;;33.83;nan;63702.41;5012202;28;20239;-66
2023/08/31 10:54:24;;;;;;;0.20;0.20;;;;;;;33.87;nan;63682.59;5011749;28;20175;-66
2023/08/31 10:57:08;;;;;;;0.47;0.28;;;;;;;33.79;nan;63646.81;5011935;28;20171;-65
2023/08/31 10:59:53;;;;;;;0.35;0.35;;;;;;;33.64;nan;63661.81;5011841;28;20160;-66
2023/08/31 11:02:42;;;;;;;0.20;0.20;;;;;;;33.68;nan;63632.56;5011788;28;20163;-68
2023/08/31 11:05:07;;;;;;;0.38;0.38;;;;;;;33.56;nan;63549.16;5007992;28;20669;-67
2023/08/31 11:07:36;;;;;;;0.20;0.20;;;;;;;33.37;nan;63630.56;5012954;28;20230;-67
2023/08/31 11:10:10;;;;;;;0.20;0.20;;;;;;;33.45;nan;63595.34;5013702;28;20650;-69
2023/08/31 11:12:36;;;;;;;0.68;0.60;;;;;;;32.85;nan;63428.50;5014232;28;20250;-66
2023/08/31 11:15:03;;;;;;;0.60;0.50;;;;;;;32.69;nan;63513.31;5014107;28;20203;-69
2023/08/31 11:17:29;;;;;;;0.38;0.38;;;;;;;32.39;nan;63440.09;5037197;28;20194;-67
2023/08/31 11:19:55;;;;;;;0.30;0.30;;;;;;;32.36;nan;63351.94;5039305;28;20186;-67
2023/08/31 11:22:21;;;;;;;0.20;0.20;;;;;;;32.44;nan;63422.03;5034189;28;20554;-68
2023/08/31 11:24:46;;;;;;;2.50;0.85;;;;;;;32.66;nan;63409.22;5035659;28;20195;-68
2023/08/31 11:27:12;;;;;;;0.45;0.45;;;;;;;32.94;nan;63425.66;5035883;28;20324;-66
2023/08/31 11:29:42;;;;;;;0.40;0.40;;;;;;;33.06;nan;63534.91;5035709;28;20174;-67
2023/08/31 11:32:07;;;;;;;0.40;0.40;;;;;;;33.28;nan;63557.72;5034514;28;20273;-69
2023/08/31 11:34:33;;;;;;;0.22;0.22;;;;;;;33.55;nan;63625.47;5037829;28;20771;-66
2023/08/31 11:36:58;;;;;;;0.30;0.30;;;;;;;33.86;nan;63689.97;5035423;28;20258;-68
2023/08/31 11:39:24;;;;;;;0.30;0.30;;;;;;;34.28;nan;63779.94;5035442;28;20179;-65
2023/08/31 11:41:49;;;;;;;0.20;0.20;;;;;;;34.33;nan;63684.84;5035474;28;20250;-70
2023/08/31 11:44:16;;;;;;;0.55;0.55;;;;;;;34.39;nan;63780.00;5034997;28;20241;-65
2023/08/31 11:46:45;;;;;;;0.30;0.30;;;;;;;34.40;nan;63738.69;5035448;28;20171;-68
2023/08/31 11:49:11;;;;;;;0.40;0.40;;;;;;;34.51;nan;63791.25;5035141;28;20313;-69
2023/08/31 11:51:39;;;;;;;0.40;0.40;;;;;;;34.62;nan;63792.81;5035156;28;20216;-67